createdAt,value
2022-12-11T00:04:46.647Z,0.00
2022-12-11T00:09:48.893Z,0.00
2022-12-11T00:14:48.065Z,0.00
2022-12-11T00:19:49.277Z,0.00
2022-12-11T00:24:50.376Z,0.00
2022-12-11T00:29:52.600Z,0.00
2022-12-11T00:34:52.697Z,0.00
2022-12-11T00:39:52.814Z,0.00
2022-12-11T00:44:52.110Z,0.00
2022-12-11T00:49:53.386Z,0.00
2022-12-11T00:54:53.516Z,0.00
2022-12-11T00:59:54.727Z,0.00
2022-12-11T01:04:56.867Z,0.00
2022-12-11T01:09:57.011Z,0.00
2022-12-11T01:14:56.241Z,0.00
2022-12-11T01:19:57.473Z,0.00
2022-12-11T01:24:58.695Z,0.00
2022-12-11T01:29:59.987Z,0.00
2022-12-11T01:35:01.247Z,0.00
2022-12-11T01:40:02.328Z,0.00
2022-12-11T01:45:03.496Z,0.00
2022-12-11T01:50:04.745Z,0.00
2022-12-11T01:55:06.347Z,0.00
2022-12-11T02:00:05.576Z,0.00
2022-12-11T02:05:06.822Z,0.00
2022-12-11T02:10:07.910Z,0.00
2022-12-11T02:15:09.580Z,0.00
2022-12-11T02:20:08.937Z,0.00
2022-12-11T02:25:11.349Z,0.00
2022-12-11T02:30:10.693Z,0.00
2022-12-11T02:35:12.107Z,0.00
2022-12-11T02:40:11.371Z,0.00
2022-12-11T02:45:12.873Z,0.00
2022-12-11T02:50:12.138Z,0.00
2022-12-11T02:55:13.482Z,0.00
2022-12-11T03:00:14.718Z,0.00
2022-12-11T03:05:16.032Z,0.00
2022-12-11T03:10:17.328Z,0.00
2022-12-11T03:15:18.548Z,0.00
2022-12-11T03:20:19.625Z,0.00
2022-12-11T03:25:20.865Z,0.00
2022-12-11T03:30:22.029Z,0.00
2022-12-11T03:35:23.236Z,0.00
2022-12-11T03:40:25.337Z,0.00
2022-12-11T03:45:25.438Z,0.00
2022-12-11T03:50:24.686Z,0.00
2022-12-11T03:55:25.931Z,0.00
2022-12-11T04:00:27.174Z,0.00
2022-12-11T04:05:28.420Z,0.00
2022-12-11T04:10:29.522Z,0.00
2022-12-11T04:15:30.606Z,0.00
2022-12-11T04:20:31.833Z,0.00
2022-12-11T04:25:33.105Z,0.00
2022-12-11T04:30:35.198Z,0.00
2022-12-11T04:35:34.378Z,0.00
2022-12-11T04:40:35.592Z,0.00
2022-12-11T04:45:36.800Z,0.00
2022-12-11T04:50:38.944Z,0.00
2022-12-11T04:55:38.143Z,0.00
2022-12-11T05:00:39.352Z,0.00
2022-12-11T05:05:40.635Z,0.00
2022-12-11T05:10:44.502Z,0.00
2022-12-11T05:15:41.895Z,0.00
2022-12-11T05:20:43.035Z,0.00
2022-12-11T05:25:44.278Z,0.00
2022-12-11T05:30:45.418Z,0.00
2022-12-11T05:35:46.646Z,0.00
2022-12-11T05:40:47.743Z,0.00
2022-12-11T05:45:48.915Z,0.00
2022-12-11T05:50:50.149Z,0.00
2022-12-11T05:55:51.377Z,0.00
2022-12-11T06:00:52.567Z,0.00
2022-12-11T06:05:53.798Z,0.00
2022-12-11T06:10:55.008Z,0.00
2022-12-11T06:15:56.199Z,0.00
2022-12-11T06:20:57.408Z,0.00
2022-12-11T06:25:58.481Z,4.00
2022-12-11T06:30:59.694Z,4.00
2022-12-11T06:36:00.925Z,4.00
2022-12-11T06:41:02.124Z,16.00
2022-12-11T06:46:04.372Z,28.00
2022-12-11T06:51:03.698Z,52.00
2022-12-11T06:56:06.783Z,92.00
2022-12-11T07:01:06.067Z,140.00
2022-12-11T07:06:07.337Z,192.00
2022-12-11T07:11:08.549Z,268.00
2022-12-11T07:16:09.682Z,380.00
2022-12-11T07:21:10.873Z,520.00
2022-12-11T07:26:12.002Z,680.00
2022-12-11T07:31:13.253Z,868.00
2022-12-11T07:36:14.431Z,1012.00
2022-12-11T07:41:15.530Z,1188.00
2022-12-11T07:46:16.823Z,1352.00
2022-12-11T07:51:18.079Z,1388.00
2022-12-11T07:56:19.225Z,1448.00
2022-12-11T08:01:21.423Z,1464.00
2022-12-11T08:06:20.667Z,1556.00
2022-12-11T08:11:21.752Z,1660.00
2022-12-11T08:16:23.010Z,1844.00
2022-12-11T08:21:24.544Z,2048.00
2022-12-11T08:26:23.932Z,2256.00
2022-12-11T08:31:25.060Z,2340.00
2022-12-11T08:36:26.235Z,2464.00
2022-12-11T08:41:26.677Z,2756.00
2022-12-11T08:46:27.836Z,3184.00
2022-12-11T08:51:28.973Z,3300.00
2022-12-11T08:56:30.152Z,3376.00
2022-12-11T09:01:32.351Z,3880.00
2022-12-11T09:06:31.511Z,3704.00
2022-12-11T09:11:32.600Z,5580.00
2022-12-11T09:16:33.736Z,5844.00
2022-12-11T09:21:34.873Z,5944.00
2022-12-11T09:26:36.995Z,6148.00
2022-12-11T09:31:36.137Z,6164.00
2022-12-11T09:36:37.233Z,5864.00
2022-12-11T09:41:38.394Z,5792.00
2022-12-11T09:46:39.536Z,5424.00
2022-12-11T09:51:41.702Z,5216.00
2022-12-11T09:56:40.809Z,5236.00
2022-12-11T10:01:41.989Z,5272.00
2022-12-11T10:06:44.116Z,5272.00
2022-12-11T10:11:43.282Z,4624.00
2022-12-11T10:16:44.440Z,5148.00
2022-12-11T10:21:45.535Z,5264.00
2022-12-11T10:26:46.691Z,5024.00
2022-12-11T10:31:47.827Z,5164.00
2022-12-11T10:36:48.954Z,5444.00
2022-12-11T10:41:50.141Z,5428.00
2022-12-11T10:46:52.338Z,5436.00
2022-12-11T10:51:51.527Z,5420.00
2022-12-11T10:56:52.670Z,5360.00
2022-12-11T11:01:53.914Z,5328.00
2022-12-11T11:06:55.160Z,5288.00
2022-12-11T11:11:56.371Z,5300.00
2022-12-11T11:16:57.543Z,5284.00
2022-12-11T11:21:58.689Z,5184.00
2022-12-11T11:27:16.243Z,5236.00
2022-12-11T11:32:01.822Z,5200.00
2022-12-11T11:37:00.993Z,5220.00
2022-12-11T11:42:02.118Z,5156.00
2022-12-11T11:47:04.284Z,5108.00
2022-12-11T11:52:05.359Z,5164.00
2022-12-11T11:57:05.471Z,5192.00
2022-12-11T12:02:04.615Z,5156.00
2022-12-11T12:07:05.787Z,5132.00
2022-12-11T12:12:06.964Z,5084.00
2022-12-11T12:17:09.159Z,5016.00
2022-12-11T12:22:09.368Z,5080.00
2022-12-11T12:27:29.152Z,5096.00
2022-12-11T12:32:08.659Z,5044.00
2022-12-11T12:37:10.789Z,5020.00
2022-12-11T12:42:10.900Z,5016.00
2022-12-11T12:47:10.017Z,4488.00
2022-12-11T12:52:11.178Z,3420.00
2022-12-11T12:57:13.417Z,3088.00
2022-12-11T13:02:12.716Z,3028.00
2022-12-11T13:07:13.918Z,3000.00
2022-12-11T13:12:17.126Z,2964.00
2022-12-11T13:17:17.284Z,2920.00
2022-12-11T13:22:17.414Z,2880.00
2022-12-11T13:27:16.587Z,2852.00
2022-12-11T13:32:18.728Z,2804.00
2022-12-11T13:37:19.228Z,2736.00
2022-12-11T13:42:18.427Z,2664.00
2022-12-11T13:47:19.589Z,2596.00
2022-12-11T13:52:20.830Z,2512.00
2022-12-11T13:57:21.981Z,2440.00
2022-12-11T14:02:23.383Z,2368.00
2022-12-11T14:07:24.648Z,2280.00
2022-12-11T14:12:25.813Z,2192.00
2022-12-11T14:17:27.003Z,2116.00
2022-12-11T14:22:28.158Z,2032.00
2022-12-11T14:27:29.343Z,1916.00
2022-12-11T14:32:30.645Z,1776.00
2022-12-11T14:37:31.167Z,1636.00
2022-12-11T14:42:30.333Z,1496.00
2022-12-11T14:47:31.490Z,1356.00
2022-12-11T14:52:32.717Z,1208.00
2022-12-11T14:57:33.900Z,1052.00
2022-12-11T15:02:36.208Z,904.00
2022-12-11T15:07:35.370Z,764.00
2022-12-11T15:12:37.500Z,624.00
2022-12-11T15:17:37.754Z,496.00
2022-12-11T15:22:36.874Z,376.00
2022-12-11T15:27:38.128Z,260.00
2022-12-11T15:32:39.350Z,164.00
2022-12-11T15:37:40.642Z,96.00
2022-12-11T15:42:41.041Z,48.00
2022-12-11T15:47:42.192Z,24.00
2022-12-11T15:52:43.685Z,12.00
2022-12-11T15:57:43.001Z,4.00
2022-12-11T16:02:47.952Z,4.00
2022-12-11T16:07:46.249Z,4.00
2022-12-11T16:12:45.625Z,0.00
2022-12-11T16:17:46.895Z,0.00
2022-12-11T16:22:48.212Z,0.00
2022-12-11T16:27:50.175Z,0.00
2022-12-11T16:32:49.580Z,0.00
2022-12-11T16:37:51.009Z,0.00
2022-12-11T16:42:52.217Z,0.00
2022-12-11T16:47:54.558Z,0.00
2022-12-11T16:52:53.845Z,0.00
2022-12-11T16:57:55.261Z,0.00
2022-12-11T17:02:54.641Z,0.00
2022-12-11T17:07:56.880Z,0.00
2022-12-11T17:12:57.217Z,0.00
2022-12-11T17:18:00.164Z,0.00
2022-12-11T17:22:57.657Z,0.00
2022-12-11T17:27:58.537Z,0.00
2022-12-11T17:32:57.932Z,0.00
2022-12-11T17:37:59.461Z,0.00
2022-12-11T17:42:58.872Z,0.00
2022-12-11T17:48:00.135Z,0.00
2022-12-11T17:53:01.375Z,0.00
2022-12-11T17:58:02.623Z,0.00
2022-12-11T18:03:03.785Z,0.00
2022-12-11T18:08:05.133Z,0.00
2022-12-11T18:13:07.259Z,0.00
2022-12-11T18:18:08.476Z,0.00
2022-12-11T18:23:08.009Z,0.00
2022-12-11T18:28:07.357Z,0.00
2022-12-11T18:33:07.550Z,0.00
2022-12-11T18:38:08.988Z,0.00
2022-12-11T18:43:08.171Z,0.00
2022-12-11T18:48:10.312Z,0.00
2022-12-11T18:53:10.126Z,0.00
2022-12-11T18:58:09.362Z,0.00
2022-12-11T19:03:10.761Z,0.00
2022-12-11T19:08:10.233Z,0.00
2022-12-11T19:13:10.690Z,0.00
2022-12-11T19:18:09.979Z,0.00
2022-12-11T19:23:11.470Z,0.00
2022-12-11T19:28:10.628Z,0.00
2022-12-11T19:33:12.120Z,0.00
2022-12-11T19:38:11.573Z,0.00
2022-12-11T19:43:13.004Z,0.00
2022-12-11T19:48:14.551Z,0.00
2022-12-11T19:53:14.124Z,0.00
2022-12-11T19:58:13.693Z,0.00
2022-12-11T20:03:13.144Z,0.00
2022-12-11T20:08:42.970Z,0.00
2022-12-11T20:13:14.987Z,0.00
2022-12-11T20:18:18.995Z,0.00
2022-12-11T20:23:14.684Z,0.00
2022-12-11T20:28:14.249Z,0.00
2022-12-11T20:33:24.950Z,0.00
2022-12-11T20:38:14.282Z,0.00
2022-12-11T20:43:15.744Z,0.00
2022-12-11T20:48:15.219Z,0.00
2022-12-11T20:53:14.860Z,0.00
2022-12-11T20:58:14.185Z,0.00
2022-12-11T21:03:15.543Z,0.00
2022-12-11T21:08:17.125Z,0.00
2022-12-11T21:13:17.450Z,0.00
2022-12-11T21:18:16.893Z,0.00
2022-12-11T21:23:18.345Z,0.00
2022-12-11T21:28:19.634Z,0.00
2022-12-11T21:33:21.109Z,0.00
2022-12-11T21:38:20.496Z,0.00
2022-12-11T21:43:21.824Z,0.00
2022-12-11T21:48:23.066Z,0.00
2022-12-11T21:53:24.357Z,0.00
2022-12-11T21:58:25.545Z,0.00
2022-12-11T22:03:26.771Z,0.00
2022-12-11T22:08:27.972Z,0.00
2022-12-11T22:13:29.180Z,0.00
2022-12-11T22:18:31.326Z,0.00
2022-12-11T22:23:30.462Z,0.00
2022-12-11T22:28:31.638Z,0.00
2022-12-11T22:33:32.783Z,0.00
2022-12-11T22:38:33.931Z,0.00
2022-12-11T22:43:35.082Z,0.00
2022-12-11T22:48:36.237Z,0.00
2022-12-11T22:53:37.462Z,0.00
2022-12-11T22:58:38.603Z,0.00
2022-12-11T23:03:39.862Z,0.00
2022-12-11T23:08:42.084Z,0.00
2022-12-11T23:13:41.367Z,0.00
2022-12-11T23:18:42.523Z,0.00
2022-12-11T23:23:44.648Z,0.00
2022-12-11T23:28:43.824Z,0.00
2022-12-11T23:33:44.992Z,0.00
2022-12-11T23:38:50.950Z,0.00
2022-12-11T23:43:46.219Z,0.00
2022-12-11T23:48:47.471Z,0.00
2022-12-11T23:53:48.744Z,0.00
2022-12-11T23:58:49.873Z,0.00
